sensor_id;sensor_type;location;lat;lon;timestamp;P1;durP1;ratioP1;P2;durP2;ratioP2
23802;SDS011;12082;51.786;6.018;2022-10-17T00:02:05;23.47;;;18.77;;
23802;SDS011;12082;51.786;6.018;2022-10-17T00:04:31;18.67;;;16.67;;
23802;SDS011;12082;51.786;6.018;2022-10-17T00:06:57;19.67;;;17.50;;
23802;SDS011;12082;51.786;6.018;2022-10-17T00:09:23;22.23;;;18.40;;
23802;SDS011;12082;51.786;6.018;2022-10-17T00:11:49;21.93;;;17.30;;
23802;SDS011;12082;51.786;6.018;2022-10-17T00:14:15;24.93;;;16.23;;
23802;SDS011;12082;51.786;6.018;2022-10-17T00:16:40;20.67;;;15.87;;
23802;SDS011;12082;51.786;6.018;2022-10-17T00:19:06;20.40;;;16.27;;
23802;SDS011;12082;51.786;6.018;2022-10-17T00:21:32;20.90;;;15.63;;
23802;SDS011;12082;51.786;6.018;2022-10-17T00:23:59;21.63;;;15.93;;
23802;SDS011;12082;51.786;6.018;2022-10-17T00:26:25;23.33;;;16.40;;
23802;SDS011;12082;51.786;6.018;2022-10-17T00:28:52;23.70;;;16.63;;
23802;SDS011;12082;51.786;6.018;2022-10-17T00:31:19;19.43;;;16.47;;
23802;SDS011;12082;51.786;6.018;2022-10-17T00:33:45;28.07;;;17.57;;
23802;SDS011;12082;51.786;6.018;2022-10-17T00:36:13;18.87;;;15.90;;
23802;SDS011;12082;51.786;6.018;2022-10-17T00:38:40;19.87;;;15.27;;
23802;SDS011;12082;51.786;6.018;2022-10-17T00:41:07;17.23;;;13.63;;
23802;SDS011;12082;51.786;6.018;2022-10-17T00:43:49;17.60;;;14.20;;
23802;SDS011;12082;51.786;6.018;2022-10-17T00:46:15;23.40;;;15.37;;
23802;SDS011;12082;51.786;6.018;2022-10-17T00:48:41;20.97;;;14.80;;
23802;SDS011;12082;51.786;6.018;2022-10-17T00:51:08;20.57;;;14.60;;
23802;SDS011;12082;51.786;6.018;2022-10-17T00:53:34;18.70;;;14.73;;
23802;SDS011;12082;51.786;6.018;2022-10-17T00:56:01;19.00;;;14.60;;
23802;SDS011;12082;51.786;6.018;2022-10-17T00:58:27;18.73;;;14.87;;
23802;SDS011;12082;51.786;6.018;2022-10-17T01:00:53;15.50;;;13.33;;
23802;SDS011;12082;51.786;6.018;2022-10-17T01:03:19;20.47;;;14.47;;
23802;SDS011;12082;51.786;6.018;2022-10-17T01:05:45;16.30;;;14.40;;
23802;SDS011;12082;51.786;6.018;2022-10-17T01:08:12;21.43;;;14.30;;
23802;SDS011;12082;51.786;6.018;2022-10-17T01:10:41;17.17;;;13.63;;
23802;SDS011;12082;51.786;6.018;2022-10-17T01:13:54;17.10;;;13.60;;
23802;SDS011;12082;51.786;6.018;2022-10-17T01:18:35;15.20;;;13.60;;
23802;SDS011;12082;51.786;6.018;2022-10-17T01:21:09;18.33;;;15.67;;
23802;SDS011;12082;51.786;6.018;2022-10-17T01:31:18;16.37;;;14.40;;
23802;SDS011;12082;51.786;6.018;2022-10-17T01:39:02;17.87;;;13.90;;
23802;SDS011;12082;51.786;6.018;2022-10-17T01:41:34;17.70;;;13.40;;
23802;SDS011;12082;51.786;6.018;2022-10-17T01:44:13;15.07;;;13.00;;
23802;SDS011;12082;51.786;6.018;2022-10-17T01:46:40;18.13;;;13.70;;
23802;SDS011;12082;51.786;6.018;2022-10-17T01:49:08;16.93;;;13.30;;
23802;SDS011;12082;51.786;6.018;2022-10-17T01:54:15;18.07;;;13.63;;
23802;SDS011;12082;51.786;6.018;2022-10-17T01:56:43;18.43;;;13.90;;
23802;SDS011;12082;51.786;6.018;2022-10-17T01:59:17;16.87;;;14.30;;
23802;SDS011;12082;51.786;6.018;2022-10-17T02:01:46;20.43;;;14.77;;
23802;SDS011;12082;51.786;6.018;2022-10-17T02:04:12;18.33;;;14.17;;
23802;SDS011;12082;51.786;6.018;2022-10-17T02:06:40;17.10;;;13.00;;
23802;SDS011;12082;51.786;6.018;2022-10-17T02:09:16;18.60;;;13.77;;
23802;SDS011;12082;51.786;6.018;2022-10-17T02:11:42;17.63;;;13.87;;
23802;SDS011;12082;51.786;6.018;2022-10-17T02:14:24;19.37;;;14.87;;
23802;SDS011;12082;51.786;6.018;2022-10-17T02:17:13;22.83;;;13.37;;
23802;SDS011;12082;51.786;6.018;2022-10-17T02:22:34;19.17;;;14.43;;
23802;SDS011;12082;51.786;6.018;2022-10-17T02:25:08;18.03;;;13.40;;
23802;SDS011;12082;51.786;6.018;2022-10-17T02:30:09;15.47;;;12.97;;
23802;SDS011;12082;51.786;6.018;2022-10-17T02:32:39;19.07;;;13.97;;
23802;SDS011;12082;51.786;6.018;2022-10-17T02:35:08;19.50;;;13.47;;
23802;SDS011;12082;51.786;6.018;2022-10-17T02:37:34;15.07;;;13.47;;
23802;SDS011;12082;51.786;6.018;2022-10-17T02:40:01;15.10;;;12.63;;
23802;SDS011;12082;51.786;6.018;2022-10-17T02:42:28;16.87;;;13.27;;
23802;SDS011;12082;51.786;6.018;2022-10-17T02:44:56;18.10;;;13.70;;
23802;SDS011;12082;51.786;6.018;2022-10-17T02:47:28;17.80;;;14.03;;
23802;SDS011;12082;51.786;6.018;2022-10-17T02:49:57;14.33;;;12.80;;
23802;SDS011;12082;51.786;6.018;2022-10-17T02:55:03;19.77;;;13.27;;
23802;SDS011;12082;51.786;6.018;2022-10-17T03:00:32;17.87;;;12.57;;
23802;SDS011;12082;51.786;6.018;2022-10-17T03:02:59;13.87;;;11.90;;
23802;SDS011;12082;51.786;6.018;2022-10-17T03:05:26;13.37;;;11.97;;
23802;SDS011;12082;51.786;6.018;2022-10-17T03:07:53;15.47;;;12.57;;
23802;SDS011;12082;51.786;6.018;2022-10-17T03:10:19;14.43;;;12.20;;
23802;SDS011;12082;51.786;6.018;2022-10-17T03:12:45;13.33;;;11.97;;
23802;SDS011;12082;51.786;6.018;2022-10-17T03:15:11;19.93;;;12.13;;
23802;SDS011;12082;51.786;6.018;2022-10-17T03:17:38;14.47;;;12.90;;
23802;SDS011;12082;51.786;6.018;2022-10-17T03:20:04;14.43;;;13.03;;
23802;SDS011;12082;51.786;6.018;2022-10-17T03:22:31;17.97;;;12.30;;
23802;SDS011;12082;51.786;6.018;2022-10-17T03:24:57;13.43;;;11.50;;
23802;SDS011;12082;51.786;6.018;2022-10-17T03:27:23;13.23;;;11.83;;
23802;SDS011;12082;51.786;6.018;2022-10-17T03:29:49;15.70;;;11.80;;
23802;SDS011;12082;51.786;6.018;2022-10-17T03:32:15;13.93;;;11.43;;
23802;SDS011;12082;51.786;6.018;2022-10-17T03:34:41;16.43;;;11.57;;
23802;SDS011;12082;51.786;6.018;2022-10-17T03:37:07;13.10;;;10.77;;
23802;SDS011;12082;51.786;6.018;2022-10-17T03:39:33;15.17;;;11.43;;
23802;SDS011;12082;51.786;6.018;2022-10-17T03:41:59;17.53;;;11.77;;
23802;SDS011;12082;51.786;6.018;2022-10-17T03:44:25;14.17;;;11.97;;
23802;SDS011;12082;51.786;6.018;2022-10-17T03:46:50;20.97;;;12.63;;
23802;SDS011;12082;51.786;6.018;2022-10-17T03:49:16;12.53;;;11.33;;
23802;SDS011;12082;51.786;6.018;2022-10-17T03:51:42;13.70;;;11.93;;
23802;SDS011;12082;51.786;6.018;2022-10-17T03:54:08;14.50;;;11.73;;
23802;SDS011;12082;51.786;6.018;2022-10-17T03:56:35;13.67;;;12.37;;
23802;SDS011;12082;51.786;6.018;2022-10-17T03:59:01;16.23;;;12.50;;
23802;SDS011;12082;51.786;6.018;2022-10-17T04:01:27;14.10;;;10.87;;
23802;SDS011;12082;51.786;6.018;2022-10-17T04:03:53;12.90;;;11.17;;
23802;SDS011;12082;51.786;6.018;2022-10-17T04:06:20;13.63;;;11.77;;
23802;SDS011;12082;51.786;6.018;2022-10-17T04:08:46;12.73;;;11.43;;
23802;SDS011;12082;51.786;6.018;2022-10-17T04:11:13;11.90;;;10.80;;
23802;SDS011;12082;51.786;6.018;2022-10-17T04:13:39;12.57;;;11.30;;
23802;SDS011;12082;51.786;6.018;2022-10-17T04:16:07;13.13;;;11.57;;
23802;SDS011;12082;51.786;6.018;2022-10-17T04:18:33;13.10;;;11.13;;
23802;SDS011;12082;51.786;6.018;2022-10-17T04:21:02;19.57;;;10.80;;
23802;SDS011;12082;51.786;6.018;2022-10-17T04:23:28;15.07;;;11.27;;
23802;SDS011;12082;51.786;6.018;2022-10-17T04:25:55;12.30;;;11.00;;
23802;SDS011;12082;51.786;6.018;2022-10-17T04:28:21;12.40;;;11.20;;
23802;SDS011;12082;51.786;6.018;2022-10-17T04:30:54;11.37;;;10.10;;
23802;SDS011;12082;51.786;6.018;2022-10-17T04:33:20;19.03;;;10.43;;
23802;SDS011;12082;51.786;6.018;2022-10-17T04:35:53;12.90;;;11.60;;
23802;SDS011;12082;51.786;6.018;2022-10-17T04:38:19;11.57;;;10.47;;
23802;SDS011;12082;51.786;6.018;2022-10-17T04:40:45;12.40;;;10.83;;
23802;SDS011;12082;51.786;6.018;2022-10-17T04:43:11;16.10;;;11.30;;
23802;SDS011;12082;51.786;6.018;2022-10-17T04:45:37;11.20;;;10.10;;
23802;SDS011;12082;51.786;6.018;2022-10-17T04:48:03;11.70;;;10.57;;
23802;SDS011;12082;51.786;6.018;2022-10-17T04:50:29;12.90;;;11.10;;
23802;SDS011;12082;51.786;6.018;2022-10-17T04:52:55;14.53;;;11.80;;
23802;SDS011;12082;51.786;6.018;2022-10-17T04:55:21;11.70;;;10.50;;
23802;SDS011;12082;51.786;6.018;2022-10-17T04:57:47;13.10;;;11.23;;
23802;SDS011;12082;51.786;6.018;2022-10-17T05:00:13;13.83;;;10.10;;
23802;SDS011;12082;51.786;6.018;2022-10-17T05:02:39;11.53;;;10.37;;
23802;SDS011;12082;51.786;6.018;2022-10-17T05:05:05;10.60;;;9.57;;
23802;SDS011;12082;51.786;6.018;2022-10-17T05:07:31;11.63;;;10.50;;
23802;SDS011;12082;51.786;6.018;2022-10-17T05:09:57;12.80;;;11.20;;
23802;SDS011;12082;51.786;6.018;2022-10-17T05:12:23;13.63;;;12.17;;
23802;SDS011;12082;51.786;6.018;2022-10-17T05:14:49;12.40;;;11.20;;
23802;SDS011;12082;51.786;6.018;2022-10-17T05:17:15;12.90;;;11.60;;
23802;SDS011;12082;51.786;6.018;2022-10-17T05:19:41;12.70;;;11.33;;
23802;SDS011;12082;51.786;6.018;2022-10-17T05:22:07;14.63;;;11.20;;
23802;SDS011;12082;51.786;6.018;2022-10-17T05:24:33;14.30;;;11.47;;
23802;SDS011;12082;51.786;6.018;2022-10-17T05:26:59;13.30;;;11.57;;
23802;SDS011;12082;51.786;6.018;2022-10-17T05:29:25;17.50;;;11.07;;
23802;SDS011;12082;51.786;6.018;2022-10-17T05:31:51;12.93;;;11.53;;
23802;SDS011;12082;51.786;6.018;2022-10-17T05:34:17;12.57;;;11.23;;
23802;SDS011;12082;51.786;6.018;2022-10-17T05:36:43;13.00;;;11.20;;
23802;SDS011;12082;51.786;6.018;2022-10-17T05:39:10;12.97;;;11.07;;
23802;SDS011;12082;51.786;6.018;2022-10-17T05:41:37;13.23;;;11.10;;
23802;SDS011;12082;51.786;6.018;2022-10-17T05:44:04;13.53;;;11.80;;
23802;SDS011;12082;51.786;6.018;2022-10-17T05:46:29;11.87;;;10.77;;
23802;SDS011;12082;51.786;6.018;2022-10-17T05:48:55;12.47;;;11.23;;
23802;SDS011;12082;51.786;6.018;2022-10-17T05:51:22;13.23;;;10.13;;
23802;SDS011;12082;51.786;6.018;2022-10-17T05:53:48;13.83;;;11.77;;
23802;SDS011;12082;51.786;6.018;2022-10-17T05:56:14;12.33;;;10.60;;
23802;SDS011;12082;51.786;6.018;2022-10-17T05:58:40;12.97;;;11.13;;
23802;SDS011;12082;51.786;6.018;2022-10-17T06:01:07;15.27;;;11.03;;
23802;SDS011;12082;51.786;6.018;2022-10-17T06:03:34;10.40;;;9.37;;
23802;SDS011;12082;51.786;6.018;2022-10-17T06:06:04;14.33;;;10.47;;
23802;SDS011;12082;51.786;6.018;2022-10-17T06:08:30;12.70;;;11.33;;
23802;SDS011;12082;51.786;6.018;2022-10-17T06:10:56;11.73;;;10.10;;
23802;SDS011;12082;51.786;6.018;2022-10-17T06:13:22;14.13;;;10.77;;
23802;SDS011;12082;51.786;6.018;2022-10-17T06:15:48;12.27;;;11.17;;
23802;SDS011;12082;51.786;6.018;2022-10-17T06:18:14;12.20;;;10.93;;
23802;SDS011;12082;51.786;6.018;2022-10-17T06:20:40;16.00;;;11.33;;
23802;SDS011;12082;51.786;6.018;2022-10-17T06:23:06;14.40;;;11.60;;
23802;SDS011;12082;51.786;6.018;2022-10-17T06:25:32;13.83;;;11.30;;
23802;SDS011;12082;51.786;6.018;2022-10-17T06:27:58;15.10;;;11.83;;
23802;SDS011;12082;51.786;6.018;2022-10-17T06:30:25;13.03;;;10.70;;
23802;SDS011;12082;51.786;6.018;2022-10-17T06:32:51;12.47;;;11.27;;
23802;SDS011;12082;51.786;6.018;2022-10-17T06:35:18;15.57;;;11.30;;
23802;SDS011;12082;51.786;6.018;2022-10-17T06:37:43;12.77;;;11.30;;
23802;SDS011;12082;51.786;6.018;2022-10-17T06:40:10;16.17;;;12.43;;
23802;SDS011;12082;51.786;6.018;2022-10-17T06:42:36;11.47;;;10.20;;
23802;SDS011;12082;51.786;6.018;2022-10-17T06:45:02;13.77;;;10.67;;
23802;SDS011;12082;51.786;6.018;2022-10-17T06:47:28;13.53;;;10.93;;
23802;SDS011;12082;51.786;6.018;2022-10-17T06:49:54;11.87;;;10.80;;
23802;SDS011;12082;51.786;6.018;2022-10-17T06:52:21;11.17;;;10.07;;
23802;SDS011;12082;51.786;6.018;2022-10-17T06:54:47;13.00;;;10.23;;
23802;SDS011;12082;51.786;6.018;2022-10-17T06:57:13;14.93;;;10.10;;
23802;SDS011;12082;51.786;6.018;2022-10-17T06:59:39;11.00;;;9.87;;
23802;SDS011;12082;51.786;6.018;2022-10-17T07:02:05;13.70;;;10.07;;
23802;SDS011;12082;51.786;6.018;2022-10-17T07:04:32;12.23;;;9.60;;
23802;SDS011;12082;51.786;6.018;2022-10-17T07:06:58;15.43;;;10.07;;
23802;SDS011;12082;51.786;6.018;2022-10-17T07:09:26;11.07;;;9.97;;
23802;SDS011;12082;51.786;6.018;2022-10-17T07:11:52;11.47;;;10.10;;
23802;SDS011;12082;51.786;6.018;2022-10-17T07:14:18;10.77;;;9.67;;
23802;SDS011;12082;51.786;6.018;2022-10-17T07:16:44;13.80;;;10.03;;
23802;SDS011;12082;51.786;6.018;2022-10-17T07:19:10;12.40;;;10.33;;
23802;SDS011;12082;51.786;6.018;2022-10-17T07:21:36;11.23;;;10.10;;
23802;SDS011;12082;51.786;6.018;2022-10-17T07:24:02;11.53;;;10.27;;
23802;SDS011;12082;51.786;6.018;2022-10-17T07:26:29;12.10;;;10.80;;
23802;SDS011;12082;51.786;6.018;2022-10-17T07:28:55;11.13;;;9.93;;
23802;SDS011;12082;51.786;6.018;2022-10-17T07:31:22;13.17;;;10.70;;
23802;SDS011;12082;51.786;6.018;2022-10-17T07:33:48;11.53;;;10.47;;
23802;SDS011;12082;51.786;6.018;2022-10-17T07:36:14;11.77;;;10.57;;
23802;SDS011;12082;51.786;6.018;2022-10-17T07:38:41;11.83;;;10.70;;
23802;SDS011;12082;51.786;6.018;2022-10-17T07:41:07;14.17;;;9.97;;
23802;SDS011;12082;51.786;6.018;2022-10-17T07:43:34;14.23;;;10.60;;
23802;SDS011;12082;51.786;6.018;2022-10-17T07:46:01;12.77;;;9.23;;
23802;SDS011;12082;51.786;6.018;2022-10-17T07:48:27;12.27;;;11.03;;
23802;SDS011;12082;51.786;6.018;2022-10-17T07:50:53;14.03;;;9.63;;
23802;SDS011;12082;51.786;6.018;2022-10-17T07:53:19;10.90;;;9.80;;
23802;SDS011;12082;51.786;6.018;2022-10-17T07:55:45;12.23;;;10.77;;
23802;SDS011;12082;51.786;6.018;2022-10-17T07:58:12;11.77;;;9.67;;
23802;SDS011;12082;51.786;6.018;2022-10-17T08:00:38;11.43;;;10.33;;
23802;SDS011;12082;51.786;6.018;2022-10-17T08:03:04;10.40;;;9.47;;
23802;SDS011;12082;51.786;6.018;2022-10-17T08:05:31;13.03;;;9.87;;
23802;SDS011;12082;51.786;6.018;2022-10-17T08:07:57;10.40;;;9.40;;
23802;SDS011;12082;51.786;6.018;2022-10-17T08:10:24;11.77;;;10.07;;
23802;SDS011;12082;51.786;6.018;2022-10-17T08:12:54;12.93;;;10.53;;
23802;SDS011;12082;51.786;6.018;2022-10-17T08:15:21;11.03;;;9.97;;
23802;SDS011;12082;51.786;6.018;2022-10-17T08:17:47;10.70;;;9.70;;
23802;SDS011;12082;51.786;6.018;2022-10-17T08:20:13;10.73;;;9.83;;
23802;SDS011;12082;51.786;6.018;2022-10-17T08:22:39;10.77;;;9.63;;
23802;SDS011;12082;51.786;6.018;2022-10-17T08:25:05;11.20;;;10.20;;
23802;SDS011;12082;51.786;6.018;2022-10-17T08:27:32;12.57;;;9.70;;
23802;SDS011;12082;51.786;6.018;2022-10-17T08:29:58;15.03;;;10.00;;
23802;SDS011;12082;51.786;6.018;2022-10-17T08:32:25;11.97;;;9.67;;
23802;SDS011;12082;51.786;6.018;2022-10-17T08:34:52;12.50;;;11.10;;
23802;SDS011;12082;51.786;6.018;2022-10-17T08:37:18;11.83;;;10.63;;
23802;SDS011;12082;51.786;6.018;2022-10-17T08:39:44;11.83;;;10.70;;
23802;SDS011;12082;51.786;6.018;2022-10-17T08:44:57;16.67;;;11.13;;
23802;SDS011;12082;51.786;6.018;2022-10-17T08:47:26;11.90;;;10.70;;
23802;SDS011;12082;51.786;6.018;2022-10-17T08:49:55;12.70;;;10.07;;
23802;SDS011;12082;51.786;6.018;2022-10-17T08:55:02;13.60;;;11.47;;
23802;SDS011;12082;51.786;6.018;2022-10-17T08:57:28;14.70;;;11.63;;
23802;SDS011;12082;51.786;6.018;2022-10-17T08:59:54;15.17;;;12.40;;
23802;SDS011;12082;51.786;6.018;2022-10-17T09:02:38;15.13;;;11.80;;
23802;SDS011;12082;51.786;6.018;2022-10-17T09:15:44;13.50;;;12.10;;
23802;SDS011;12082;51.786;6.018;2022-10-17T09:18:23;14.27;;;10.63;;
23802;SDS011;12082;51.786;6.018;2022-10-17T09:20:51;12.97;;;11.67;;
23802;SDS011;12082;51.786;6.018;2022-10-17T09:23:29;18.70;;;12.03;;
23802;SDS011;12082;51.786;6.018;2022-10-17T09:25:59;15.43;;;10.90;;
23802;SDS011;12082;51.786;6.018;2022-10-17T09:28:33;11.97;;;10.87;;
23802;SDS011;12082;51.786;6.018;2022-10-17T09:33:27;11.97;;;10.77;;
23802;SDS011;12082;51.786;6.018;2022-10-17T09:35:54;15.20;;;11.23;;
23802;SDS011;12082;51.786;6.018;2022-10-17T09:38:21;13.33;;;10.23;;
23802;SDS011;12082;51.786;6.018;2022-10-17T09:40:50;15.03;;;10.10;;
23802;SDS011;12082;51.786;6.018;2022-10-17T09:43:19;11.90;;;9.63;;
23802;SDS011;12082;51.786;6.018;2022-10-17T09:45:53;14.13;;;10.10;;
23802;SDS011;12082;51.786;6.018;2022-10-17T09:48:23;12.23;;;10.60;;
23802;SDS011;12082;51.786;6.018;2022-10-17T09:50:51;15.90;;;11.07;;
23802;SDS011;12082;51.786;6.018;2022-10-17T09:53:20;12.43;;;11.20;;
23802;SDS011;12082;51.786;6.018;2022-10-17T09:55:48;17.67;;;11.27;;
23802;SDS011;12082;51.786;6.018;2022-10-17T09:58:15;13.50;;;10.20;;
23802;SDS011;12082;51.786;6.018;2022-10-17T10:00:42;17.37;;;10.17;;
23802;SDS011;12082;51.786;6.018;2022-10-17T10:05:38;14.17;;;9.57;;
23802;SDS011;12082;51.786;6.018;2022-10-17T10:08:05;11.20;;;9.80;;
23802;SDS011;12082;51.786;6.018;2022-10-17T10:10:36;15.07;;;12.30;;
23802;SDS011;12082;51.786;6.018;2022-10-17T10:15:39;11.17;;;10.00;;
23802;SDS011;12082;51.786;6.018;2022-10-17T10:21:02;11.87;;;10.67;;
23802;SDS011;12082;51.786;6.018;2022-10-17T10:23:29;12.70;;;10.90;;
23802;SDS011;12082;51.786;6.018;2022-10-17T10:25:55;15.20;;;10.93;;
23802;SDS011;12082;51.786;6.018;2022-10-17T10:28:24;15.97;;;11.17;;
23802;SDS011;12082;51.786;6.018;2022-10-17T10:30:51;11.90;;;10.70;;
23802;SDS011;12082;51.786;6.018;2022-10-17T10:33:18;13.83;;;10.93;;
23802;SDS011;12082;51.786;6.018;2022-10-17T10:35:50;14.70;;;11.53;;
23802;SDS011;12082;51.786;6.018;2022-10-17T10:38:16;16.67;;;12.40;;
23802;SDS011;12082;51.786;6.018;2022-10-17T10:40:46;16.53;;;13.53;;
23802;SDS011;12082;51.786;6.018;2022-10-17T10:43:31;15.70;;;14.03;;
23802;SDS011;12082;51.786;6.018;2022-10-17T10:45:58;15.47;;;13.80;;
23802;SDS011;12082;51.786;6.018;2022-10-17T10:48:25;22.13;;;15.03;;
23802;SDS011;12082;51.786;6.018;2022-10-17T10:50:59;15.97;;;14.27;;
23802;SDS011;12082;51.786;6.018;2022-10-17T10:56:24;15.97;;;12.80;;
23802;SDS011;12082;51.786;6.018;2022-10-17T11:01:28;18.47;;;13.93;;
23802;SDS011;12082;51.786;6.018;2022-10-17T11:04:07;22.93;;;13.70;;
23802;SDS011;12082;51.786;6.018;2022-10-17T11:06:37;19.00;;;13.90;;
23802;SDS011;12082;51.786;6.018;2022-10-17T11:09:22;16.90;;;14.10;;
23802;SDS011;12082;51.786;6.018;2022-10-17T11:14:40;17.83;;;13.77;;
23802;SDS011;12082;51.786;6.018;2022-10-17T11:17:09;15.73;;;13.90;;
23802;SDS011;12082;51.786;6.018;2022-10-17T11:19:44;15.27;;;12.90;;
23802;SDS011;12082;51.786;6.018;2022-10-17T11:22:25;19.07;;;14.03;;
23802;SDS011;12082;51.786;6.018;2022-10-17T11:27:23;18.43;;;13.83;;
23802;SDS011;12082;51.786;6.018;2022-10-17T11:29:49;17.03;;;13.27;;
23802;SDS011;12082;51.786;6.018;2022-10-17T11:32:27;18.80;;;14.13;;
23802;SDS011;12082;51.786;6.018;2022-10-17T11:35:38;15.53;;;13.97;;
23802;SDS011;12082;51.786;6.018;2022-10-17T11:37:46;16.00;;;14.43;;
23802;SDS011;12082;51.786;6.018;2022-10-17T11:40:21;18.27;;;15.00;;
23802;SDS011;12082;51.786;6.018;2022-10-17T11:42:58;17.03;;;15.00;;
23802;SDS011;12082;51.786;6.018;2022-10-17T11:45:25;18.50;;;15.20;;
23802;SDS011;12082;51.786;6.018;2022-10-17T11:47:53;19.53;;;15.73;;
23802;SDS011;12082;51.786;6.018;2022-10-17T11:53:13;19.50;;;15.57;;
23802;SDS011;12082;51.786;6.018;2022-10-17T11:55:39;25.87;;;15.33;;
23802;SDS011;12082;51.786;6.018;2022-10-17T12:14:00;24.20;;;16.23;;
23802;SDS011;12082;51.786;6.018;2022-10-17T12:24:36;18.53;;;16.50;;
23802;SDS011;12082;51.786;6.018;2022-10-17T12:29:48;24.50;;;18.03;;
23802;SDS011;12082;51.786;6.018;2022-10-17T12:32:15;25.63;;;18.63;;
23802;SDS011;12082;51.786;6.018;2022-10-17T12:34:53;21.13;;;17.07;;
23802;SDS011;12082;51.786;6.018;2022-10-17T12:40:45;28.20;;;19.93;;
23802;SDS011;12082;51.786;6.018;2022-10-17T12:42:51;22.07;;;19.23;;
23802;SDS011;12082;51.786;6.018;2022-10-17T12:48:01;21.10;;;17.23;;
23802;SDS011;12082;51.786;6.018;2022-10-17T12:53:12;18.63;;;16.40;;
23802;SDS011;12082;51.786;6.018;2022-10-17T12:55:38;20.23;;;17.20;;
23802;SDS011;12082;51.786;6.018;2022-10-17T12:58:05;21.50;;;16.10;;
23802;SDS011;12082;51.786;6.018;2022-10-17T13:00:45;17.93;;;14.87;;
23802;SDS011;12082;51.786;6.018;2022-10-17T13:03:14;22.40;;;16.77;;
23802;SDS011;12082;51.786;6.018;2022-10-17T13:05:42;19.77;;;15.57;;
23802;SDS011;12082;51.786;6.018;2022-10-17T13:08:14;19.33;;;16.30;;
23802;SDS011;12082;51.786;6.018;2022-10-17T13:10:43;19.20;;;17.00;;
23802;SDS011;12082;51.786;6.018;2022-10-17T13:13:21;23.20;;;18.47;;
23802;SDS011;12082;51.786;6.018;2022-10-17T13:15:48;24.77;;;20.43;;
23802;SDS011;12082;51.786;6.018;2022-10-17T13:18:19;26.33;;;21.20;;
23802;SDS011;12082;51.786;6.018;2022-10-17T13:21:03;27.60;;;20.67;;
23802;SDS011;12082;51.786;6.018;2022-10-17T13:23:33;30.40;;;21.00;;
23802;SDS011;12082;51.786;6.018;2022-10-17T13:28:28;23.20;;;18.67;;
23802;SDS011;12082;51.786;6.018;2022-10-17T13:30:54;26.37;;;19.93;;
23802;SDS011;12082;51.786;6.018;2022-10-17T13:33:27;28.23;;;20.40;;
23802;SDS011;12082;51.786;6.018;2022-10-17T13:35:54;29.77;;;20.27;;
23802;SDS011;12082;51.786;6.018;2022-10-17T13:38:22;36.30;;;21.07;;
23802;SDS011;12082;51.786;6.018;2022-10-17T13:40:49;32.07;;;21.50;;
23802;SDS011;12082;51.786;6.018;2022-10-17T13:43:16;29.97;;;21.80;;
23802;SDS011;12082;51.786;6.018;2022-10-17T13:45:49;36.00;;;21.97;;
23802;SDS011;12082;51.786;6.018;2022-10-17T13:48:20;30.57;;;21.03;;
23802;SDS011;12082;51.786;6.018;2022-10-17T13:50:47;28.73;;;20.77;;
23802;SDS011;12082;51.786;6.018;2022-10-17T13:53:18;31.10;;;21.23;;
23802;SDS011;12082;51.786;6.018;2022-10-17T13:55:52;29.80;;;21.63;;
23802;SDS011;12082;51.786;6.018;2022-10-17T13:58:18;27.27;;;21.30;;
23802;SDS011;12082;51.786;6.018;2022-10-17T14:00:44;29.17;;;21.73;;
23802;SDS011;12082;51.786;6.018;2022-10-17T14:03:10;31.13;;;22.90;;
23802;SDS011;12082;51.786;6.018;2022-10-17T14:05:56;27.87;;;21.30;;
23802;SDS011;12082;51.786;6.018;2022-10-17T14:08:22;30.80;;;22.70;;
23802;SDS011;12082;51.786;6.018;2022-10-17T14:10:48;31.80;;;22.63;;
23802;SDS011;12082;51.786;6.018;2022-10-17T14:13:18;33.00;;;23.07;;
23802;SDS011;12082;51.786;6.018;2022-10-17T14:15:45;35.23;;;23.93;;
23802;SDS011;12082;51.786;6.018;2022-10-17T14:18:18;28.63;;;21.53;;
23802;SDS011;12082;51.786;6.018;2022-10-17T14:20:45;35.50;;;23.60;;
23802;SDS011;12082;51.786;6.018;2022-10-17T14:23:29;33.23;;;24.23;;
23802;SDS011;12082;51.786;6.018;2022-10-17T14:26:09;36.53;;;24.47;;
23802;SDS011;12082;51.786;6.018;2022-10-17T14:28:36;38.70;;;25.63;;
23802;SDS011;12082;51.786;6.018;2022-10-17T14:33:44;41.77;;;27.03;;
23802;SDS011;12082;51.786;6.018;2022-10-17T14:36:11;39.83;;;25.77;;
23802;SDS011;12082;51.786;6.018;2022-10-17T14:38:37;44.93;;;25.93;;
23802;SDS011;12082;51.786;6.018;2022-10-17T14:41:36;40.57;;;26.43;;
23802;SDS011;12082;51.786;6.018;2022-10-17T14:44:06;39.23;;;24.90;;
23802;SDS011;12082;51.786;6.018;2022-10-17T14:46:35;37.10;;;24.97;;
23802;SDS011;12082;51.786;6.018;2022-10-17T14:49:05;32.70;;;24.63;;
23802;SDS011;12082;51.786;6.018;2022-10-17T14:51:32;44.77;;;25.97;;
23802;SDS011;12082;51.786;6.018;2022-10-17T14:56:47;33.90;;;24.43;;
23802;SDS011;12082;51.786;6.018;2022-10-17T14:59:13;35.60;;;24.07;;
23802;SDS011;12082;51.786;6.018;2022-10-17T15:01:41;33.23;;;23.73;;
23802;SDS011;12082;51.786;6.018;2022-10-17T15:04:07;40.07;;;24.27;;
23802;SDS011;12082;51.786;6.018;2022-10-17T15:06:34;33.20;;;22.30;;
23802;SDS011;12082;51.786;6.018;2022-10-17T15:09:01;37.67;;;22.17;;
23802;SDS011;12082;51.786;6.018;2022-10-17T15:11:28;30.47;;;22.33;;
23802;SDS011;12082;51.786;6.018;2022-10-17T15:13:54;30.83;;;22.20;;
23802;SDS011;12082;51.786;6.018;2022-10-17T15:16:21;30.17;;;21.50;;
23802;SDS011;12082;51.786;6.018;2022-10-17T15:18:47;32.37;;;21.57;;
23802;SDS011;12082;51.786;6.018;2022-10-17T15:21:14;28.97;;;20.67;;
23802;SDS011;12082;51.786;6.018;2022-10-17T15:23:41;26.70;;;18.90;;
23802;SDS011;12082;51.786;6.018;2022-10-17T15:26:12;27.13;;;18.90;;
23802;SDS011;12082;51.786;6.018;2022-10-17T15:28:38;25.30;;;17.97;;
23802;SDS011;12082;51.786;6.018;2022-10-17T15:31:04;24.23;;;19.60;;
23802;SDS011;12082;51.786;6.018;2022-10-17T15:33:30;28.90;;;17.53;;
23802;SDS011;12082;51.786;6.018;2022-10-17T15:35:56;22.30;;;16.87;;
23802;SDS011;12082;51.786;6.018;2022-10-17T15:38:22;22.43;;;16.70;;
23802;SDS011;12082;51.786;6.018;2022-10-17T15:40:48;27.53;;;17.70;;
23802;SDS011;12082;51.786;6.018;2022-10-17T15:43:15;21.10;;;17.30;;
23802;SDS011;12082;51.786;6.018;2022-10-17T15:45:42;32.60;;;19.30;;
23802;SDS011;12082;51.786;6.018;2022-10-17T15:48:13;26.30;;;19.07;;
23802;SDS011;12082;51.786;6.018;2022-10-17T15:50:40;28.67;;;18.40;;
23802;SDS011;12082;51.786;6.018;2022-10-17T15:53:10;25.90;;;19.00;;
23802;SDS011;12082;51.786;6.018;2022-10-17T15:55:36;29.37;;;18.47;;
23802;SDS011;12082;51.786;6.018;2022-10-17T15:58:02;23.43;;;19.70;;
23802;SDS011;12082;51.786;6.018;2022-10-17T16:00:28;37.37;;;22.77;;
23802;SDS011;12082;51.786;6.018;2022-10-17T16:02:54;32.50;;;22.90;;
23802;SDS011;12082;51.786;6.018;2022-10-17T16:05:21;32.93;;;21.77;;
23802;SDS011;12082;51.786;6.018;2022-10-17T16:07:49;32.23;;;22.60;;
23802;SDS011;12082;51.786;6.018;2022-10-17T16:10:16;30.87;;;21.43;;
23802;SDS011;12082;51.786;6.018;2022-10-17T16:12:42;25.57;;;21.50;;
23802;SDS011;12082;51.786;6.018;2022-10-17T16:15:12;28.60;;;22.03;;
23802;SDS011;12082;51.786;6.018;2022-10-17T16:17:38;33.07;;;23.23;;
23802;SDS011;12082;51.786;6.018;2022-10-17T16:20:05;33.17;;;23.27;;
23802;SDS011;12082;51.786;6.018;2022-10-17T16:22:32;42.00;;;25.93;;